Time;durP1;ratioP1;P1;durP2;ratioP2;P2;SDS_P1;SDS_P2;PMS_P1;PMS_P2;Temp;Humidity;BMP_temperature;BMP_pressure;BME280_temperature;BME280_humidity;BME280_pressure;Samples;Min_cycle;Max_cycle;Signal;HPM_P1;HPM_P2
2021/03/09 00:00:37;;;;;;;8.73;4.40;;;;;;;-3.26;84.22;100646.03;1753430;81;21571;-41
2021/03/09 00:03:05;;;;;;;9.33;5.33;;;;;;;-3.26;85.07;100646.03;1756169;80;21122;-41
2021/03/09 00:05:33;;;;;;;9.70;4.43;;;;;;;-3.26;84.67;100646.89;1761698;80;21578;-43
2021/03/09 00:08:01;;;;;;;10.53;5.13;;;;;;;-3.26;85.76;100648.64;1756569;80;21277;-43
2021/03/09 00:10:28;;;;;;;7.17;4.03;;;;;;;-3.24;85.49;100651.26;1752265;80;21586;-40
2021/03/09 00:12:56;;;;;;;7.33;3.93;;;;;;;-3.23;84.98;100644.72;1753379;80;21122;-40
2021/03/09 00:15:24;;;;;;;8.67;4.00;;;;;;;-3.19;85.71;100643.00;1758046;80;21111;-42
2021/03/09 00:17:51;;;;;;;8.93;4.43;;;;;;;-3.18;84.98;100642.12;1752006;80;21147;-40
2021/03/09 00:20:19;;;;;;;9.23;3.50;;;;;;;-3.15;85.11;100649.94;1757372;80;21276;-39
2021/03/09 00:22:47;;;;;;;8.17;4.40;;;;;;;-3.13;84.92;100643.84;1756297;80;21547;-41
2021/03/09 00:25:14;;;;;;;7.57;4.13;;;;;;;-3.13;82.75;100642.55;1751600;80;21129;-40
2021/03/09 00:27:42;;;;;;;6.70;3.50;;;;;;;-3.08;85.57;100649.94;1758335;80;21134;-39
2021/03/09 00:30:11;;;;;;;7.03;3.93;;;;;;;-3.10;84.62;100648.20;1745796;80;21118;-40
2021/03/09 00:32:39;;;;;;;7.90;4.60;;;;;;;-3.05;85.80;100647.35;1751751;80;21169;-43
2021/03/09 00:35:07;;;;;;;7.73;3.80;;;;;;;-3.02;85.50;100653.41;1760220;80;21662;-40
2021/03/09 00:37:35;;;;;;;7.53;3.70;;;;;;;-2.97;83.92;100647.75;1753768;81;21133;-40
2021/03/09 00:40:04;;;;;;;7.67;3.87;;;;;;;-2.92;85.09;100644.73;1749143;80;21137;-42
2021/03/09 00:42:33;;;;;;;8.48;4.00;;;;;;;-2.90;85.66;100639.05;1762388;80;21173;-43
2021/03/09 00:45:02;;;;;;;8.30;4.07;;;;;;;-2.88;83.99;100638.19;1754936;80;21138;-44
2021/03/09 00:47:30;;;;;;;8.73;4.30;;;;;;;-2.84;82.92;100637.32;1753927;80;21196;-40
2021/03/09 00:49:59;;;;;;;6.27;3.63;;;;;;;-2.86;81.25;100642.11;1765006;80;21166;-42
2021/03/09 00:52:26;;;;;;;7.83;4.03;;;;;;;-2.83;84.06;100645.58;1762745;80;21158;-41
2021/03/09 00:54:54;;;;;;;6.43;3.87;;;;;;;-2.83;84.47;100640.80;1763705;79;21142;-42
2021/03/09 00:57:21;;;;;;;6.40;3.13;;;;;;;-2.81;84.50;100643.42;1725005;83;21166;-41
2021/03/09 00:59:49;;;;;;;7.87;3.77;;;;;;;-2.83;82.49;100644.71;1698249;83;21161;-41
2021/03/09 01:02:16;;;;;;;7.07;3.60;;;;;;;-2.78;83.42;100643.41;1700429;82;21156;-41
2021/03/09 01:04:44;;;;;;;6.70;3.60;;;;;;;-2.76;83.49;100646.45;1694280;82;21131;-40
2021/03/09 01:07:12;;;;;;;7.27;3.17;;;;;;;-2.76;83.99;100647.75;1730483;81;21115;-40
2021/03/09 01:09:40;;;;;;;8.00;3.90;;;;;;;-2.75;84.49;100646.00;1758142;79;21103;-41
2021/03/09 01:12:09;;;;;;;6.53;3.20;;;;;;;-2.76;83.13;100646.45;1763877;79;21268;-40
2021/03/09 01:14:37;;;;;;;6.37;3.43;;;;;;;-2.74;85.06;100649.94;1761350;79;21150;-40
2021/03/09 01:17:05;;;;;;;7.77;3.00;;;;;;;-2.68;85.39;100654.27;1761753;80;21118;-39
2021/03/09 01:19:33;;;;;;;6.20;3.87;;;;;;;-2.65;83.78;100654.25;1758477;79;21157;-39
2021/03/09 01:22:01;;;;;;;6.30;2.93;;;;;;;-2.63;84.04;100655.99;1762631;79;21110;-39
2021/03/09 01:24:28;;;;;;;7.20;3.40;;;;;;;-2.61;85.44;100659.48;1758364;79;21134;-40
2021/03/09 01:26:56;;;;;;;6.37;3.10;;;;;;;-2.58;85.49;100660.34;1758351;79;21148;-43
2021/03/09 01:29:23;;;;;;;7.23;3.00;;;;;;;-2.55;85.61;100666.42;1764618;79;21152;-44
2021/03/09 01:31:52;;;;;;;6.20;2.87;;;;;;;-2.50;85.74;100662.50;1759105;79;21153;-42
2021/03/09 01:34:20;;;;;;;4.93;3.07;;;;;;;-2.48;85.56;100662.06;1758899;79;21519;-40
2021/03/09 01:36:48;;;;;;;6.27;3.07;;;;;;;-2.47;83.37;100665.09;1760978;79;21574;-40
2021/03/09 01:39:16;;;;;;;5.97;2.67;;;;;;;-2.43;85.40;100665.09;1764967;79;21153;-40
2021/03/09 01:41:45;;;;;;;4.87;2.60;;;;;;;-2.45;84.82;100660.30;1752352;79;21134;-40
2021/03/09 01:44:13;;;;;;;6.57;3.10;;;;;;;-2.41;85.02;100654.66;1761112;79;21157;-41
2021/03/09 01:46:41;;;;;;;6.93;3.47;;;;;;;-2.41;83.93;100659.44;1758319;79;21130;-43
2021/03/09 01:49:10;;;;;;;6.90;3.47;;;;;;;-2.40;84.28;100662.47;1754284;79;21098;-45
2021/03/09 01:51:38;;;;;;;6.07;3.37;;;;;;;-2.38;85.21;100662.92;1755887;81;21153;-43
2021/03/09 01:54:06;;;;;;;6.73;3.47;;;;;;;-2.36;85.44;100667.70;1758671;80;21121;-41
2021/03/09 01:56:34;;;;;;;7.37;3.63;;;;;;;-2.33;84.29;100659.41;1761817;80;21142;-41
2021/03/09 01:59:01;;;;;;;6.37;3.47;;;;;;;-2.30;84.93;100661.14;1761540;80;21106;-41
2021/03/09 02:01:29;;;;;;;7.70;4.03;;;;;;;-2.31;82.71;100660.28;1764353;80;21182;-39
2021/03/09 02:03:57;;;;;;;6.17;3.67;;;;;;;-2.30;83.87;100661.14;1760712;80;21134;-38
2021/03/09 02:06:25;;;;;;;9.93;4.27;;;;;;;-2.29;84.35;100657.23;1755054;81;21158;-39
2021/03/09 02:08:52;;;;;;;7.30;3.77;;;;;;;-2.26;85.10;100664.19;1759297;80;21496;-43
2021/03/09 02:11:53;;;;;;;6.57;3.77;;;;;;;-2.25;83.32;100666.78;1762057;80;21098;-43
2021/03/09 02:14:34;;;;;;;8.53;4.03;;;;;;;-2.23;83.58;100664.17;1761922;80;21146;-43
2021/03/09 02:17:26;;;;;;;6.47;4.53;;;;;;;-2.22;82.54;100671.13;1758597;80;21142;-39
2021/03/09 02:20:18;;;;;;;4.97;2.50;;;;;;;-2.23;83.75;100671.57;1755937;80;21113;-38
2021/03/09 02:23:43;;;;;;;5.63;2.33;;;;;;;-2.21;84.35;100672.44;1759529;80;22005;-39
2021/03/09 02:26:22;;;;;;;4.40;2.33;;;;;;;-2.18;84.28;100675.03;1741697;81;21146;-39
2021/03/09 02:29:23;;;;;;;5.67;2.97;;;;;;;-2.14;85.15;100677.22;1760807;80;21133;-41
2021/03/09 02:31:51;;;;;;;6.17;2.80;;;;;;;-2.11;84.89;100681.13;1728840;81;21129;-38
2021/03/09 02:34:29;;;;;;;4.03;2.37;;;;;;;-2.08;85.03;100681.11;1727832;81;21181;-39
2021/03/09 02:36:58;;;;;;;4.33;2.60;;;;;;;-2.06;85.53;100679.36;1724753;82;21145;-39
2021/03/09 02:39:25;;;;;;;6.30;2.70;;;;;;;-2.04;85.48;100684.56;1730742;81;21161;-40
2021/03/09 02:41:55;;;;;;;7.73;3.63;;;;;;;-2.02;85.67;100690.66;1720800;81;21153;-40
2021/03/09 02:44:23;;;;;;;4.63;2.70;;;;;;;-2.02;85.64;100688.91;1694906;83;21170;-39
2021/03/09 02:46:51;;;;;;;4.13;2.37;;;;;;;-2.00;85.31;100683.25;1727377;81;21149;-39
2021/03/09 02:49:20;;;;;;;4.87;2.67;;;;;;;-1.96;86.00;100684.13;1726236;81;21169;-39
2021/03/09 02:51:48;;;;;;;4.33;2.53;;;;;;;-1.94;86.12;100693.25;1728245;81;21205;-39
2021/03/09 02:54:15;;;;;;;4.23;2.17;;;;;;;-1.89;86.25;100696.71;1725964;81;21169;-40
2021/03/09 02:56:44;;;;;;;5.60;3.27;;;;;;;-1.88;86.45;100701.95;1735591;81;21157;-41
2021/03/09 02:59:14;;;;;;;5.20;3.07;;;;;;;-1.84;86.41;100701.07;1731014;81;21142;-40
2021/03/09 03:01:43;;;;;;;5.00;2.83;;;;;;;-1.82;85.87;100697.13;1690929;82;21190;-40
2021/03/09 03:04:19;;;;;;;4.97;3.67;;;;;;;-1.76;85.95;100697.98;1781057;78;28395;-39
2021/03/09 03:06:48;;;;;;;5.17;3.17;;;;;;;-1.78;85.04;100702.78;1772794;80;21117;-39
2021/03/09 03:09:17;;;;;;;4.47;2.77;;;;;;;-1.72;85.19;100713.64;1776592;79;21129;-42
2021/03/09 03:11:46;;;;;;;3.53;2.40;;;;;;;-1.69;85.33;100709.70;1742824;80;21145;-39
2021/03/09 03:14:14;;;;;;;5.13;2.60;;;;;;;-1.68;85.65;100709.70;1719567;81;21118;-42
2021/03/09 03:16:42;;;;;;;4.63;2.50;;;;;;;-1.65;85.89;100716.23;1716586;81;21189;-42
2021/03/09 03:19:10;;;;;;;5.63;3.30;;;;;;;-1.63;85.97;100718.84;1717091;81;21165;-40
2021/03/09 03:21:37;;;;;;;4.00;2.57;;;;;;;-1.61;86.16;100719.72;1712645;82;21164;-44
2021/03/09 03:24:06;;;;;;;6.13;3.70;;;;;;;-1.58;86.22;100723.62;1687133;81;21157;-42
2021/03/09 03:26:38;;;;;;;7.77;4.83;;;;;;;-1.58;86.18;100723.17;1711623;81;21182;-41
2021/03/09 03:29:06;;;;;;;;;;;;;;;-1.58;85.65;100727.09;1718608;81;21590;-45
2021/03/09 03:31:34;;;;;;;8.20;4.73;;;;;;;-1.57;85.39;100724.03;1718408;81;20465;-39
2021/03/09 03:34:03;;;;;;;5.87;3.13;;;;;;;-1.58;85.23;100725.78;1720993;81;21673;-43
2021/03/09 03:36:33;;;;;;;6.10;3.70;;;;;;;-1.59;85.52;100726.67;1718040;81;21141;-43
2021/03/09 03:39:01;;;;;;;8.03;3.70;;;;;;;-1.58;84.94;100727.54;1719103;81;21130;-45
2021/03/09 03:41:28;;;;;;;6.83;3.60;;;;;;;-1.60;84.82;100730.15;1740766;80;21630;-40
2021/03/09 03:43:56;;;;;;;7.07;3.37;;;;;;;-1.61;85.09;100732.80;1739860;81;21170;-41
2021/03/09 03:46:24;;;;;;;7.17;3.63;;;;;;;-1.63;84.95;100740.63;1719604;81;21165;-42
2021/03/09 03:48:52;;;;;;;5.97;3.40;;;;;;;-1.64;85.36;100737.60;1721839;82;21182;-42
2021/03/09 03:51:23;;;;;;;5.93;2.67;;;;;;;-1.64;84.03;100734.09;1716920;82;21169;-42
2021/03/09 03:54:05;;;;;;;8.40;3.10;;;;;;;-1.64;84.51;100741.94;1712936;81;21118;-42
2021/03/09 03:56:57;;;;;;;5.37;3.17;;;;;;;-1.64;84.09;100741.94;1724927;81;21557;-40
2021/03/09 03:59:26;;;;;;;4.53;2.57;;;;;;;-1.63;84.02;100741.08;1728419;81;21140;-41
2021/03/09 04:01:54;;;;;;;4.60;2.70;;;;;;;-1.63;84.53;100750.23;1742082;80;21140;-41
2021/03/09 04:04:24;;;;;;;4.40;2.80;;;;;;;-1.64;84.10;100741.52;1733120;80;21124;-41
2021/03/09 04:06:54;;;;;;;4.30;2.55;;;;;;;-1.64;83.40;100745.45;1776113;79;21145;-40
2021/03/09 04:09:22;;;;;;;5.13;2.83;;;;;;;-1.63;83.63;100747.17;1777106;79;21146;-40
2021/03/09 04:11:50;;;;;;;4.73;2.60;;;;;;;-1.61;83.09;100749.80;1778580;79;21161;-40
2021/03/09 04:14:18;;;;;;;5.77;2.63;;;;;;;-1.62;80.21;100756.75;1772002;79;21137;-41
2021/03/09 04:16:47;;;;;;;4.03;2.07;;;;;;;-1.67;79.71;100758.52;1772311;79;21181;-44
2021/03/09 04:19:15;;;;;;;3.70;2.13;;;;;;;-1.70;80.69;100757.67;1736355;79;21149;-44
2021/03/09 04:21:43;;;;;;;3.20;2.03;;;;;;;-1.73;79.56;100757.69;1748303;79;21148;-42
2021/03/09 04:24:12;;;;;;;5.73;2.37;;;;;;;-1.75;77.08;100765.52;1749711;80;21134;-42
2021/03/09 04:26:41;;;;;;;3.00;1.67;;;;;;;-1.78;77.07;100759.87;1748582;79;21554;-42
2021/03/09 04:29:10;;;;;;;5.10;2.00;;;;;;;-1.82;77.51;100767.28;1770492;79;21552;-40
2021/03/09 04:31:39;;;;;;;2.73;1.80;;;;;;;-1.88;75.20;100771.23;1774845;79;21652;-39
2021/03/09 04:34:06;;;;;;;3.63;1.70;;;;;;;-1.92;74.23;100774.72;1771907;79;21183;-40
2021/03/09 04:36:34;;;;;;;3.10;2.13;;;;;;;-1.96;74.96;100776.48;1772752;79;21138;-38
2021/03/09 04:39:04;;;;;;;4.10;2.70;;;;;;;-2.04;70.30;100782.59;1774828;79;21162;-40
2021/03/09 04:41:32;;;;;;;5.17;2.03;;;;;;;-2.02;73.11;100782.16;1770582;79;21153;-41
2021/03/09 04:44:00;;;;;;;5.03;2.20;;;;;;;-2.04;74.43;100783.48;1756054;80;21134;-39
2021/03/09 04:46:28;;;;;;;3.43;1.90;;;;;;;-2.05;74.33;100779.55;1771812;79;21661;-40
2021/03/09 04:48:56;;;;;;;3.57;2.03;;;;;;;-2.08;73.69;100785.66;1768243;79;21149;-41
2021/03/09 04:51:25;;;;;;;2.97;2.00;;;;;;;-2.08;73.45;100790.02;1768358;79;21126;-42
2021/03/09 04:53:53;;;;;;;4.83;2.30;;;;;;;-2.09;75.33;100786.95;1775274;79;21648;-41
2021/03/09 04:56:21;;;;;;;3.40;2.20;;;;;;;-2.03;78.06;100790.88;1765267;79;21669;-41
2021/03/09 04:58:48;;;;;;;3.97;2.20;;;;;;;-2.02;72.91;100797.39;1766697;79;21161;-46
2021/03/09 05:01:16;;;;;;;2.90;1.87;;;;;;;-2.02;73.42;100797.84;1772028;79;21153;-42
2021/03/09 05:03:44;;;;;;;4.47;2.30;;;;;;;-2.00;76.29;100806.11;1767669;79;21193;-40
2021/03/09 05:06:12;;;;;;;6.63;2.37;;;;;;;-1.98;77.08;100809.59;1761347;79;21146;-38
2021/03/09 05:08:39;;;;;;;2.67;2.07;;;;;;;-1.96;76.33;100805.69;1760871;81;21165;-38
2021/03/09 05:11:07;;;;;;;3.93;2.60;;;;;;;-2.01;74.09;100810.92;1758784;80;21158;-39
2021/03/09 05:13:37;;;;;;;5.67;2.63;;;;;;;-1.97;74.19;100811.77;1754270;81;21131;-41
2021/03/09 05:16:05;;;;;;;3.90;2.70;;;;;;;-1.93;76.87;100812.21;1707779;82;21158;-43
2021/03/09 05:18:33;;;;;;;4.67;2.90;;;;;;;-1.91;77.97;100813.09;1755010;79;21149;-40
2021/03/09 05:21:04;;;;;;;5.93;2.30;;;;;;;-1.87;79.34;100816.55;1758016;81;21154;-41
2021/03/09 05:23:32;;;;;;;4.07;2.53;;;;;;;-1.82;80.65;100822.64;1754867;79;21173;-41
2021/03/09 05:25:59;;;;;;;6.63;2.30;;;;;;;-1.76;80.21;100818.72;1754525;80;21110;-37
2021/03/09 05:28:27;;;;;;;3.23;1.90;;;;;;;-1.69;80.61;100825.64;1760822;80;21138;-41
2021/03/09 05:30:55;;;;;;;4.23;2.07;;;;;;;-1.62;81.66;100829.13;1707757;82;21546;-50
2021/03/09 05:33:23;;;;;;;4.33;2.40;;;;;;;-1.61;78.22;100833.05;1760855;80;21174;-42
2021/03/09 05:35:50;;;;;;;6.63;2.47;;;;;;;-1.64;76.29;100837.00;1759730;80;21126;-40
2021/03/09 05:38:18;;;;;;;3.13;1.57;;;;;;;-1.72;73.95;100846.58;1713593;82;21634;-43
2021/03/09 05:40:46;;;;;;;4.00;2.30;;;;;;;-1.77;76.68;100850.51;1754922;80;21173;-37
2021/03/09 05:43:14;;;;;;;3.90;1.90;;;;;;;-1.80;76.90;100843.98;1757930;80;21142;-43
2021/03/09 05:45:41;;;;;;;3.93;2.60;;;;;;;-1.83;76.41;100850.98;1752967;80;21150;-41
2021/03/09 05:48:10;;;;;;;3.63;2.07;;;;;;;-1.85;75.80;100852.27;1765685;79;21135;-41
2021/03/09 05:50:37;;;;;;;3.43;2.23;;;;;;;-1.84;78.59;100863.19;1753693;79;21141;-40
2021/03/09 05:53:05;;;;;;;4.13;2.23;;;;;;;-1.83;78.09;100869.28;1764145;80;21139;-42
2021/03/09 05:55:32;;;;;;;3.60;2.03;;;;;;;-1.86;74.95;100864.93;1752177;80;21153;-40
2021/03/09 05:58:00;;;;;;;3.40;2.00;;;;;;;-1.84;76.45;100872.34;1735213;80;21173;-41
2021/03/09 06:00:30;;;;;;;4.07;2.30;;;;;;;-1.84;77.88;100872.34;1753880;79;21090;-45
2021/03/09 06:02:57;;;;;;;3.20;1.93;;;;;;;-1.81;79.44;100878.00;1763883;80;21589;-43
2021/03/09 06:05:25;;;;;;;4.20;2.60;;;;;;;-1.75;80.46;100884.52;1757717;80;21618;-43
2021/03/09 06:07:53;;;;;;;3.63;2.50;;;;;;;-1.68;78.55;100888.87;1768127;79;21145;-41
2021/03/09 06:10:22;;;;;;;4.53;2.20;;;;;;;-1.62;79.41;100888.84;1778220;79;21133;-40
2021/03/09 06:12:51;;;;;;;5.33;2.53;;;;;;;-1.59;80.16;100895.81;1768727;79;21149;-40
2021/03/09 06:15:18;;;;;;;3.10;2.37;;;;;;;-1.57;80.50;100898.86;1773259;79;21134;-42
2021/03/09 06:17:58;;;;;;;7.90;2.83;;;;;;;-1.55;77.55;100896.25;1767879;79;21106;-41
2021/03/09 06:20:28;;;;;;;3.45;2.40;;;;;;;-1.55;75.46;100911.50;1736250;80;21534;-41
2021/03/09 06:22:58;;;;;;;6.30;2.47;;;;;;;-1.54;75.84;100907.14;1708287;82;21118;-40
2021/03/09 06:25:32;;;;;;;3.87;2.03;;;;;;;-1.52;76.24;100915.41;1721122;82;21649;-41
2021/03/09 06:28:02;;;;;;;4.03;2.47;;;;;;;-1.53;76.41;100921.53;1711225;82;21181;-41
2021/03/09 06:30:37;;;;;;;7.13;3.07;;;;;;;-1.51;78.49;100922.85;1739797;80;21165;-41
2021/03/09 06:33:05;;;;;;;4.70;2.43;;;;;;;-1.47;78.86;100925.02;1738802;80;21130;-39
2021/03/09 06:35:39;;;;;;;3.40;2.60;;;;;;;-1.47;79.28;100926.31;1740126;80;21153;-44
2021/03/09 06:38:24;;;;;;;3.83;2.47;;;;;;;-1.45;80.50;100937.66;1738829;80;21118;-42
2021/03/09 06:41:18;;;;;;;4.97;2.57;;;;;;;-1.42;78.83;100937.64;1707856;82;21158;-44
2021/03/09 06:43:48;;;;;;;5.10;2.90;;;;;;;-1.37;80.83;100938.06;1739391;80;21150;-43
2021/03/09 06:46:22;;;;;;;5.03;2.65;;;;;;;-1.35;80.16;100947.23;1710642;82;21114;-43
2021/03/09 06:48:55;;;;;;;5.00;2.70;;;;;;;-1.34;80.78;100948.95;1738818;81;21162;-42
2021/03/09 06:51:31;;;;;;;5.03;2.85;;;;;;;-1.33;81.26;100948.11;1742705;80;21150;-43
2021/03/09 06:54:03;;;;;;;6.17;2.80;;;;;;;-1.29;80.71;100956.36;1741334;80;21146;-43
2021/03/09 06:56:32;;;;;;;3.70;2.23;;;;;;;-1.30;80.31;100952.02;1709451;82;21170;-42
2021/03/09 06:59:22;;;;;;;4.67;2.77;;;;;;;-1.28;81.26;100955.50;1708320;82;21583;-43
2021/03/09 07:02:13;;;;;;;6.97;2.40;;;;;;;-1.24;80.47;100955.91;1744973;80;21629;-43
2021/03/09 07:04:47;;;;;;;5.85;2.58;;;;;;;-1.22;78.50;100967.25;1739977;80;21142;-41
2021/03/09 07:07:38;;;;;;;4.80;2.00;;;;;;;-1.27;77.08;100971.63;1705287;82;21578;-41
2021/03/09 07:10:15;;;;;;;4.80;2.50;;;;;;;-1.33;75.20;100963.81;1761547;80;21158;-42
2021/03/09 07:12:44;;;;;;;3.73;2.40;;;;;;;-1.34;76.20;100972.52;1760648;79;21136;-40
2021/03/09 07:15:18;;;;;;;4.87;2.40;;;;;;;-1.40;75.09;100976.46;1766470;80;21134;-41
2021/03/09 07:17:47;;;;;;;5.63;2.67;;;;;;;-1.44;76.51;100970.78;1763421;79;21146;-42
2021/03/09 07:20:15;;;;;;;6.40;3.13;;;;;;;-1.48;76.35;100973.00;1768265;79;21137;-42
2021/03/09 07:22:45;;;;;;;4.63;2.40;;;;;;;-1.56;73.73;100977.80;1762643;79;21165;-41
2021/03/09 07:25:16;;;;;;;6.67;3.57;;;;;;;-1.52;75.93;100978.65;1760542;79;21146;-40
2021/03/09 07:28:04;;;;;;;;;;;;;;;-1.52;75.98;100981.27;1772310;79;21108;-40
2021/03/09 07:30:36;;;;;;;9.47;2.73;;;;;;;-1.53;74.47;100985.63;1766672;80;20171;-42
2021/03/09 07:33:04;;;;;;;5.80;2.67;;;;;;;-1.56;74.81;100979.55;1762355;79;21118;-41
2021/03/09 07:35:34;;;;;;;4.93;2.80;;;;;;;-1.62;72.80;100978.22;1763893;79;21123;-41
2021/03/09 07:38:04;;;;;;;5.23;2.43;;;;;;;-1.72;71.44;100979.97;1734872;81;21138;-40
2021/03/09 07:40:34;;;;;;;5.33;2.63;;;;;;;-1.77;74.07;100983.88;1695333;82;21163;-42
2021/03/09 07:43:04;;;;;;;4.73;2.70;;;;;;;-1.75;74.12;100983.89;1701697;82;21139;-42
2021/03/09 07:45:34;;;;;;;3.67;2.17;;;;;;;-1.74;74.57;100979.09;1700323;84;21582;-42
2021/03/09 07:48:07;;;;;;;5.10;3.13;;;;;;;-1.71;75.19;100980.83;1765362;79;21162;-42
2021/03/09 07:50:39;;;;;;;5.83;3.10;;;;;;;-1.67;74.31;100981.28;1760791;79;21135;-43
2021/03/09 07:53:11;;;;;;;8.10;3.10;;;;;;;-1.61;74.29;100983.47;1765210;79;21145;-43
2021/03/09 07:55:43;;;;;;;7.33;2.90;;;;;;;-1.55;71.37;100986.50;1763222;79;21162;-43
2021/03/09 07:58:21;;;;;;;5.00;3.33;;;;;;;-1.60;67.59;100992.17;1759967;79;21142;-38
2021/03/09 08:01:06;;;;;;;5.10;3.23;;;;;;;-1.63;68.75;100995.67;1765914;79;21142;-41
2021/03/09 08:03:36;;;;;;;4.20;2.50;;;;;;;-1.68;67.98;100989.56;1699058;83;21303;-42
2021/03/09 08:06:08;;;;;;;4.25;2.98;;;;;;;-1.76;68.61;100990.88;1762792;79;21283;-42
2021/03/09 08:08:52;;;;;;;6.70;3.30;;;;;;;-1.82;67.86;100990.86;1763012;79;21139;-41
2021/03/09 08:11:25;;;;;;;4.20;2.70;;;;;;;-1.83;71.49;100993.05;1761361;79;21150;-42
2021/03/09 08:14:15;;;;;;;4.70;2.50;;;;;;;-1.87;73.37;100993.05;1759214;79;21138;-38
2021/03/09 08:16:42;;;;;;;3.77;2.40;;;;;;;-1.90;73.41;101000.89;1759790;79;21138;-39
2021/03/09 08:19:30;;;;;;;4.73;2.93;;;;;;;-1.90;72.55;100995.22;1761731;79;21146;-40
2021/03/09 08:22:14;;;;;;;5.57;3.00;;;;;;;-1.80;71.45;100984.33;1800238;78;23105;-41
2021/03/09 08:24:47;;;;;;;4.80;2.70;;;;;;;-1.75;70.13;100986.52;1724102;81;21157;-42
2021/03/09 08:30:27;;;;;;;4.50;2.93;;;;;;;-1.63;65.66;100981.72;1758431;79;23082;-44
2021/03/09 08:33:25;;;;;;;4.87;2.70;;;;;;;-1.68;64.98;100988.70;1740615;80;21146;-42
2021/03/09 08:35:53;;;;;;;5.90;3.70;;;;;;;-1.72;63.55;100979.97;1718179;82;21319;-44
2021/03/09 08:38:22;;;;;;;4.53;2.80;;;;;;;-1.73;63.78;100983.91;1716822;82;21150;-40
2021/03/09 08:41:04;;;;;;;4.80;2.80;;;;;;;-1.68;63.62;100987.39;1713706;82;21149;-44
2021/03/09 08:43:32;;;;;;;5.50;2.70;;;;;;;-1.67;61.80;100986.51;1682295;83;21165;-44
2021/03/09 08:46:01;;;;;;;8.60;3.20;;;;;;;-1.69;62.15;100977.78;1682449;83;21786;-44
2021/03/09 08:48:43;;;;;;;6.40;2.70;;;;;;;-1.66;62.50;100977.36;1712649;82;21130;-44
2021/03/09 08:51:40;;;;;;;5.30;2.70;;;;;;;-1.62;62.57;100976.47;1714535;82;21137;-44
2021/03/09 08:54:22;;;;;;;5.93;2.40;;;;;;;-1.55;61.23;100982.58;1711890;82;21161;-44
2021/03/09 08:56:50;;;;;;;7.23;3.60;;;;;;;-1.51;61.54;100977.80;1712750;82;21133;-44
2021/03/09 08:59:29;;;;;;;8.77;3.73;;;;;;;-1.48;60.43;100978.23;1715535;82;21281;-43
2021/03/09 09:02:21;;;;;;;4.30;3.00;;;;;;;-1.46;61.05;100981.69;1710738;82;21123;-40
2021/03/09 09:05:01;;;;;;;;;;;;;;;-1.45;60.60;100984.75;1718307;82;21118;-41
2021/03/09 09:10:32;;;;;;;5.27;3.57;;;;;;;-1.47;59.80;100987.36;1799391;78;22961;-40
2021/03/09 09:13:00;;;;;;;6.03;3.90;;;;;;;-1.49;60.64;100989.10;1776081;80;21569;-41
2021/03/09 09:15:32;;;;;;;5.10;3.50;;;;;;;-1.48;60.52;100999.16;1761095;79;21564;-41
2021/03/09 09:18:06;;;;;;;7.73;3.70;;;;;;;-1.45;60.01;100997.39;1766768;79;21194;-42
2021/03/09 09:20:44;;;;;;;7.33;4.13;;;;;;;-1.43;60.03;101007.88;1769538;79;21137;-41
2021/03/09 09:23:27;;;;;;;12.33;4.60;;;;;;;-1.41;60.79;101016.16;1767731;79;21154;-42
2021/03/09 09:25:57;;;;;;;10.70;4.67;;;;;;;-1.40;61.91;101023.56;1772466;79;21164;-40
2021/03/09 09:28:32;;;;;;;5.90;3.63;;;;;;;-1.41;62.23;101021.80;1761411;80;21153;-40
2021/03/09 09:31:12;;;;;;;8.00;4.10;;;;;;;-1.45;61.56;101021.39;1726658;81;21158;-43
2021/03/09 09:33:47;;;;;;;6.87;4.47;;;;;;;-1.47;62.14;101020.52;1695540;83;21199;-43
2021/03/09 09:36:18;;;;;;;7.20;3.80;;;;;;;-1.40;62.69;101023.56;1713665;82;21193;-44
2021/03/09 09:38:53;;;;;;;6.37;3.83;;;;;;;-1.27;61.94;101020.49;1654041;82;21577;-44
2021/03/09 09:41:22;;;;;;;5.33;2.90;;;;;;;-1.18;60.98;101020.48;1713641;82;21200;-43
2021/03/09 09:43:52;;;;;;;4.72;3.00;;;;;;;-1.16;60.51;101020.02;1707888;82;21132;-40
2021/03/09 09:46:26;;;;;;;5.57;3.00;;;;;;;-1.16;60.60;101019.61;1702749;82;21929;-48
2021/03/09 09:48:55;;;;;;;5.53;3.67;;;;;;;-1.09;61.38;101026.55;1708492;82;22121;-45
2021/03/09 09:51:25;;;;;;;4.40;3.00;;;;;;;-1.03;61.34;101028.72;1710057;82;21174;-42
2021/03/09 09:53:53;;;;;;;5.00;3.20;;;;;;;-1.02;59.61;101025.25;1714015;82;21174;-43
2021/03/09 09:56:24;;;;;;;5.47;2.80;;;;;;;-1.06;59.41;101031.36;1703518;82;21209;-41
2021/03/09 10:01:40;;;;;;;7.17;4.30;;;;;;;-1.10;58.17;101028.75;1798237;78;22936;-41
2021/03/09 10:04:11;;;;;;;13.70;7.87;;;;;;;-1.10;58.23;101031.37;1772820;79;21561;-42
2021/03/09 10:06:49;;;;;;;12.23;4.80;;;;;;;-1.07;58.31;101027.00;1778620;79;21750;-40
2021/03/09 10:09:25;;;;;;;5.83;4.30;;;;;;;-1.07;57.22;101029.18;1773826;80;21558;-41
2021/03/09 10:12:00;;;;;;;7.40;3.50;;;;;;;-1.11;57.48;101030.05;1744168;81;21134;-40
2021/03/09 10:14:30;;;;;;;10.20;3.80;;;;;;;-1.14;56.55;101036.61;1707400;83;21438;-40
2021/03/09 10:16:57;;;;;;;7.50;3.63;;;;;;;-1.21;56.42;101029.22;1730723;82;21178;-40
2021/03/09 10:19:37;;;;;;;9.30;4.13;;;;;;;-1.27;56.90;101031.83;1724159;82;21175;-40
2021/03/09 10:22:17;;;;;;;10.67;3.40;;;;;;;-1.31;56.45;101041.89;1723908;81;21597;-43
2021/03/09 10:24:46;;;;;;;6.77;3.77;;;;;;;-1.39;55.59;101036.63;1721887;81;21184;-43
2021/03/09 10:27:20;;;;;;;7.73;4.07;;;;;;;-1.39;56.29;101044.92;1724093;82;21142;-42
2021/03/09 10:29:48;;;;;;;11.27;4.03;;;;;;;-1.43;59.00;101045.81;1722293;81;21601;-41
2021/03/09 10:32:17;;;;;;;7.73;4.03;;;;;;;-1.50;60.60;101052.78;1724730;81;21583;-41
2021/03/09 10:34:49;;;;;;;6.07;2.70;;;;;;;-1.56;59.91;101054.97;1743368;81;21157;-40
2021/03/09 10:37:36;;;;;;;3.93;2.43;;;;;;;-1.69;60.64;101061.48;1722264;81;21292;-41
2021/03/09 10:40:06;;;;;;;4.00;2.30;;;;;;;-1.89;56.82;101059.73;1723954;81;21347;-39
2021/03/09 10:42:50;;;;;;;4.42;2.75;;;;;;;-1.97;58.63;101063.65;1725643;81;21302;-46
2021/03/09 10:45:26;;;;;;;5.27;2.70;;;;;;;-2.03;60.07;101064.92;1728637;81;21122;-43
2021/03/09 10:48:01;;;;;;;5.00;3.10;;;;;;;-2.05;59.47;101057.94;1722865;81;21140;-40
2021/03/09 10:50:31;;;;;;;7.23;2.90;;;;;;;-2.07;58.12;101069.69;1724073;81;21154;-44
2021/03/09 10:52:58;;;;;;;5.73;3.13;;;;;;;-2.10;58.38;101062.29;1729151;81;21303;-42
2021/03/09 10:55:26;;;;;;;4.80;2.87;;;;;;;-2.07;58.75;101071.00;1725988;81;21162;-41
2021/03/09 10:57:55;;;;;;;6.20;3.10;;;;;;;-2.01;58.72;101064.50;1726092;81;21303;-43
2021/03/09 11:00:23;;;;;;;4.50;3.07;;;;;;;-1.96;58.47;101070.61;1745947;80;21305;-43
2021/03/09 11:02:50;;;;;;;5.77;4.13;;;;;;;-1.90;58.23;101068.43;1732957;80;22023;-43
2021/03/09 11:05:18;;;;;;;4.33;3.10;;;;;;;-1.87;57.64;101071.05;1775095;79;21594;-43
2021/03/09 11:07:46;;;;;;;6.60;3.13;;;;;;;-1.88;57.21;101065.83;1777178;79;22081;-43
2021/03/09 11:10:16;;;;;;;5.40;3.30;;;;;;;-1.96;56.96;101071.05;1772952;79;22155;-39
2021/03/09 11:12:44;;;;;;;4.58;3.42;;;;;;;-1.98;57.43;101074.95;1776427;79;21140;-41
2021/03/09 11:15:13;;;;;;;6.80;3.73;;;;;;;-1.96;57.66;101071.91;1776081;79;21390;-42
2021/03/09 11:17:42;;;;;;;5.97;3.93;;;;;;;-1.86;57.79;101068.02;1776674;79;21373;-41
2021/03/09 11:20:10;;;;;;;6.43;4.03;;;;;;;-1.77;57.52;101075.86;1778026;79;21648;-42
2021/03/09 11:22:40;;;;;;;8.33;4.20;;;;;;;-1.72;57.00;101077.18;1772436;79;21160;-43
2021/03/09 11:25:11;;;;;;;5.53;3.37;;;;;;;-1.70;56.69;101078.92;1768898;80;21129;-45
2021/03/09 11:27:39;;;;;;;7.37;3.33;;;;;;;-1.66;55.91;101079.38;1775384;79;22116;-43
2021/03/09 11:30:08;;;;;;;5.57;2.90;;;;;;;-1.61;54.90;101073.72;1768044;79;21255;-44
2021/03/09 11:32:35;;;;;;;4.57;2.67;;;;;;;-1.59;52.63;101071.98;1767032;79;21110;-43
2021/03/09 11:35:05;;;;;;;6.10;2.17;;;;;;;-1.59;50.88;101076.31;1771614;79;21148;-43
2021/03/09 11:37:32;;;;;;;2.23;1.70;;;;;;;-1.56;51.25;101073.28;1768932;79;21452;-39
2021/03/09 11:40:00;;;;;;;3.13;1.90;;;;;;;-1.55;48.92;101064.98;1770293;79;21283;-41
2021/03/09 11:42:28;;;;;;;3.80;2.23;;;;;;;-1.55;49.77;101064.55;1769410;79;22046;-42
2021/03/09 11:44:55;;;;;;;3.67;2.20;;;;;;;-1.53;49.93;101064.56;1768037;79;21169;-43
2021/03/09 11:47:23;;;;;;;4.43;2.53;;;;;;;-1.49;50.08;101068.04;1770216;79;21142;-43
2021/03/09 11:49:51;;;;;;;3.90;1.80;;;;;;;-1.44;49.93;101062.37;1775190;79;21118;-41
2021/03/09 11:52:18;;;;;;;5.50;2.70;;;;;;;-1.35;49.55;101078.08;1771404;79;21566;-43
2021/03/09 11:54:46;;;;;;;4.60;2.93;;;;;;;-1.35;49.33;101070.23;1778304;79;21152;-43